createdAt,value
2023-03-17T00:00:00.372Z,1.1
2023-03-17T00:01:00.612Z,1.1
2023-03-17T00:02:00.449Z,1.1
2023-03-17T00:03:00.545Z,1.1
2023-03-17T00:04:00.428Z,1.1
2023-03-17T00:05:00.374Z,1.1
2023-03-17T00:06:00.403Z,1.1
2023-03-17T00:07:00.403Z,1.1
2023-03-17T00:08:03.250Z,1.1
2023-03-17T00:09:00.776Z,1.1
2023-03-17T00:10:00.356Z,1.1
2023-03-17T00:11:00.789Z,1.1
2023-03-17T00:12:00.377Z,1.1
2023-03-17T00:13:00.369Z,1.1
2023-03-17T00:14:00.390Z,1.1
2023-03-17T00:15:00.396Z,1.1
2023-03-17T00:16:01.486Z,1.1
2023-03-17T00:17:00.405Z,1.1
2023-03-17T00:18:00.421Z,1.1
2023-03-17T00:19:00.364Z,1.1
2023-03-17T00:20:00.395Z,1.1
2023-03-17T00:21:00.402Z,1.1
2023-03-17T00:22:01.592Z,1.1
2023-03-17T00:23:01.636Z,1.1
2023-03-17T00:24:00.540Z,1.1
2023-03-17T00:25:00.490Z,1.1
2023-03-17T00:26:00.390Z,1.1
2023-03-17T00:27:00.790Z,1.1
2023-03-17T00:28:00.997Z,1.1
2023-03-17T00:29:00.392Z,1.1
2023-03-17T00:30:00.382Z,1.1
2023-03-17T00:31:00.695Z,1.1
2023-03-17T00:32:00.411Z,1.1
2023-03-17T00:33:00.441Z,1.1
2023-03-17T00:34:00.753Z,1.1
2023-03-17T00:35:00.399Z,1.1
2023-03-17T00:36:00.543Z,1.2
2023-03-17T00:37:00.376Z,1.2
2023-03-17T00:38:00.399Z,1.2
2023-03-17T00:39:00.419Z,1.2
2023-03-17T00:40:00.373Z,1.2
2023-03-17T00:41:00.376Z,1.2
2023-03-17T00:42:00.378Z,1.2
2023-03-17T00:43:00.393Z,1.2
2023-03-17T00:44:00.386Z,1.2
2023-03-17T00:45:00.361Z,1.2
2023-03-17T00:46:00.515Z,1.2
2023-03-17T00:47:00.636Z,1.2
2023-03-17T00:48:00.465Z,1.2
2023-03-17T00:49:10.293Z,1.2
2023-03-17T00:50:00.386Z,1.2
2023-03-17T00:51:00.386Z,1.2
2023-03-17T00:52:00.355Z,1.2
2023-03-17T00:53:00.382Z,1.2
2023-03-17T00:54:00.357Z,1.2
2023-03-17T00:55:00.348Z,1.2
2023-03-17T00:56:00.835Z,1.3
2023-03-17T00:57:00.463Z,1.3
2023-03-17T00:58:00.425Z,1.3
2023-03-17T00:59:00.400Z,1.3
2023-03-17T01:00:00.438Z,1.3
2023-03-17T01:01:00.572Z,1.3
2023-03-17T01:02:00.427Z,1.3
2023-03-17T01:03:00.347Z,1.3
2023-03-17T01:04:00.373Z,1.3
2023-03-17T01:05:06.246Z,1.3
2023-03-17T01:06:01.592Z,1.3
2023-03-17T01:07:00.380Z,1.3
2023-03-17T01:08:00.389Z,1.3
2023-03-17T01:09:00.398Z,1.3
2023-03-17T01:10:00.373Z,1.3
2023-03-17T01:11:00.374Z,1.3
2023-03-17T01:12:00.361Z,1.3
2023-03-17T01:13:00.380Z,1.3
2023-03-17T01:14:00.394Z,1.3
2023-03-17T01:15:00.377Z,1.3
2023-03-17T01:16:00.424Z,1.2
2023-03-17T01:17:00.358Z,1.2
2023-03-17T01:18:00.933Z,1.2
2023-03-17T01:19:00.381Z,1.2
2023-03-17T01:20:00.375Z,1.2
2023-03-17T01:21:00.412Z,1.2
2023-03-17T01:22:00.362Z,1.2
2023-03-17T01:23:00.392Z,1.2
2023-03-17T01:24:00.520Z,1.2
2023-03-17T01:25:00.380Z,1.2
2023-03-17T01:26:00.411Z,1.2
2023-03-17T01:27:00.382Z,1.2
2023-03-17T01:28:00.388Z,1.2
2023-03-17T01:29:00.383Z,1.2
2023-03-17T01:30:00.378Z,1.2
2023-03-17T01:31:00.395Z,1.2
2023-03-17T01:32:00.463Z,1.2
2023-03-17T01:33:00.589Z,1.2
2023-03-17T01:34:00.361Z,1.2
2023-03-17T01:35:00.360Z,1.2
2023-03-17T01:36:00.414Z,1.4
2023-03-17T01:37:00.384Z,1.4
2023-03-17T01:38:00.485Z,1.4
2023-03-17T01:39:00.573Z,1.4
2023-03-17T01:40:00.354Z,1.4
2023-03-17T01:41:00.388Z,1.4
2023-03-17T01:42:00.382Z,1.4
2023-03-17T01:43:10.327Z,1.4
2023-03-17T01:44:00.381Z,1.4
2023-03-17T01:45:04.056Z,1.4
2023-03-17T01:46:10.329Z,1.4
2023-03-17T01:47:00.358Z,1.4
2023-03-17T01:48:00.352Z,1.4
2023-03-17T01:49:07.704Z,1.4
2023-03-17T01:50:04.264Z,1.4
2023-03-17T01:51:00.647Z,1.4
2023-03-17T01:52:00.337Z,1.4
2023-03-17T01:53:00.396Z,1.4
2023-03-17T01:54:02.172Z,1.4
2023-03-17T01:55:03.331Z,1.4
2023-03-17T01:56:01.237Z,1.4
2023-03-17T01:57:05.349Z,1.4
2023-03-17T01:58:00.740Z,1.4
2023-03-17T01:59:01.833Z,1.4
2023-03-17T02:00:10.319Z,1.4
2023-03-17T02:01:00.418Z,1.4
2023-03-17T02:02:02.680Z,1.4
2023-03-17T02:03:00.384Z,1.4
2023-03-17T02:04:00.436Z,1.4
2023-03-17T02:05:00.578Z,1.4
2023-03-17T02:06:00.935Z,1.4
2023-03-17T02:07:01.075Z,1.4
2023-03-17T02:08:00.407Z,1.4
2023-03-17T02:09:00.656Z,1.4
2023-03-17T02:10:01.766Z,1.4
2023-03-17T02:11:00.378Z,1.4
2023-03-17T02:12:01.301Z,1.4
2023-03-17T02:13:01.167Z,1.4
2023-03-17T02:14:00.699Z,1.4
2023-03-17T02:15:00.461Z,1.4
2023-03-17T02:16:00.418Z,1.5
2023-03-17T02:17:00.439Z,1.5
2023-03-17T02:18:00.365Z,1.5
2023-03-17T02:19:00.436Z,1.5
2023-03-17T02:20:10.331Z,1.5
2023-03-17T02:21:10.323Z,1.5
2023-03-17T02:22:00.673Z,1.5
2023-03-17T02:23:00.614Z,1.5
2023-03-17T02:24:03.779Z,1.5
2023-03-17T02:25:00.561Z,1.5
2023-03-17T02:26:00.439Z,1.5
2023-03-17T02:27:03.273Z,1.5
2023-03-17T02:28:05.558Z,1.5
2023-03-17T02:29:00.515Z,1.5
2023-03-17T02:30:01.079Z,1.5
2023-03-17T02:31:00.428Z,1.5
2023-03-17T02:32:00.765Z,1.5
2023-03-17T02:33:00.731Z,1.5
2023-03-17T02:34:00.476Z,1.5
2023-03-17T02:35:00.401Z,1.5
2023-03-17T02:36:00.383Z,1.4
2023-03-17T02:37:00.577Z,1.4
2023-03-17T02:38:00.393Z,1.4
2023-03-17T02:39:00.399Z,1.4
2023-03-17T02:40:00.956Z,1.4
2023-03-17T02:41:00.562Z,1.4
2023-03-17T02:42:00.490Z,1.4
2023-03-17T02:43:00.377Z,1.4
2023-03-17T02:44:00.388Z,1.4
2023-03-17T02:45:00.396Z,1.4
2023-03-17T02:46:00.477Z,1.4
2023-03-17T02:47:00.456Z,1.4
2023-03-17T02:48:00.419Z,1.4
2023-03-17T02:49:00.833Z,1.4
2023-03-17T02:50:00.744Z,1.4
2023-03-17T02:51:00.365Z,1.4
2023-03-17T02:52:00.412Z,1.4
2023-03-17T02:53:00.357Z,1.4
2023-03-17T02:54:00.400Z,1.4
2023-03-17T02:55:00.414Z,1.4
2023-03-17T02:56:00.364Z,1.5
2023-03-17T02:57:00.659Z,1.5
2023-03-17T02:58:00.738Z,1.5
2023-03-17T02:59:00.370Z,1.5
2023-03-17T03:00:00.550Z,1.5
2023-03-17T03:01:00.390Z,1.5
2023-03-17T03:02:00.393Z,1.5
2023-03-17T03:03:00.489Z,1.5
2023-03-17T03:04:00.509Z,1.5
2023-03-17T03:05:00.355Z,1.5
2023-03-17T03:06:02.966Z,1.5
2023-03-17T03:07:00.871Z,1.5
2023-03-17T03:08:00.402Z,1.5
2023-03-17T03:09:00.387Z,1.5
2023-03-17T03:10:00.400Z,1.5
2023-03-17T03:11:00.393Z,1.5
2023-03-17T03:12:00.600Z,1.5
2023-03-17T03:13:00.381Z,1.5
2023-03-17T03:14:00.356Z,1.5
2023-03-17T03:15:00.370Z,1.5
2023-03-17T03:16:00.565Z,1.5
2023-03-17T03:17:00.387Z,1.5
2023-03-17T03:18:00.380Z,1.5
2023-03-17T03:19:00.408Z,1.5
2023-03-17T03:20:00.363Z,1.5
2023-03-17T03:21:00.748Z,1.5
2023-03-17T03:22:00.408Z,1.5
2023-03-17T03:23:00.583Z,1.5
2023-03-17T03:24:00.396Z,1.5
2023-03-17T03:25:00.367Z,1.5
2023-03-17T03:26:00.358Z,1.5
2023-03-17T03:27:00.516Z,1.5
2023-03-17T03:28:00.391Z,1.5
2023-03-17T03:29:00.415Z,1.5
2023-03-17T03:30:00.397Z,1.5
2023-03-17T03:31:00.730Z,1.5
2023-03-17T03:32:00.400Z,1.5
2023-03-17T03:33:00.534Z,1.5
2023-03-17T03:34:00.386Z,1.5
2023-03-17T03:35:00.365Z,1.5
2023-03-17T03:36:00.454Z,1.4
2023-03-17T03:37:00.404Z,1.4
2023-03-17T03:38:00.722Z,1.4
2023-03-17T03:39:00.363Z,1.4
2023-03-17T03:40:00.369Z,1.4
2023-03-17T03:41:00.495Z,1.4
2023-03-17T03:42:00.361Z,1.4
2023-03-17T03:43:02.450Z,1.4
2023-03-17T03:44:00.616Z,1.4
2023-03-17T03:45:00.379Z,1.4
2023-03-17T03:46:00.459Z,1.4
2023-03-17T03:47:00.380Z,1.4
2023-03-17T03:48:00.359Z,1.4
2023-03-17T03:49:00.402Z,1.4
2023-03-17T03:50:00.494Z,1.4
2023-03-17T03:51:00.962Z,1.4
2023-03-17T03:52:00.363Z,1.4
2023-03-17T03:53:00.382Z,1.4
2023-03-17T03:54:00.383Z,1.4
2023-03-17T03:55:00.372Z,1.4
2023-03-17T03:56:00.386Z,1.3
2023-03-17T03:57:00.410Z,1.3
2023-03-17T03:58:00.364Z,1.3
2023-03-17T03:59:00.391Z,1.3
2023-03-17T04:00:00.423Z,1.3
2023-03-17T04:01:04.599Z,1.3
2023-03-17T04:02:00.382Z,1.3
2023-03-17T04:03:00.405Z,1.3
2023-03-17T04:04:00.631Z,1.3
2023-03-17T04:05:00.446Z,1.3
2023-03-17T04:06:00.377Z,1.3
2023-03-17T04:07:00.357Z,1.3
2023-03-17T04:08:00.381Z,1.3
2023-03-17T04:09:00.421Z,1.3
2023-03-17T04:10:00.410Z,1.3
2023-03-17T04:11:00.395Z,1.3
2023-03-17T04:12:00.532Z,1.3
2023-03-17T04:13:00.431Z,1.3
2023-03-17T04:14:00.359Z,1.3
2023-03-17T04:15:00.426Z,1.3
2023-03-17T04:16:00.420Z,1.4
2023-03-17T04:17:00.370Z,1.4
2023-03-17T04:18:00.389Z,1.4
2023-03-17T04:19:00.447Z,1.4
2023-03-17T04:20:00.381Z,1.4
2023-03-17T04:21:00.393Z,1.4
2023-03-17T04:22:00.378Z,1.4
2023-03-17T04:23:00.386Z,1.4
2023-03-17T04:24:00.370Z,1.4
2023-03-17T04:25:00.386Z,1.4
2023-03-17T04:26:00.416Z,1.4
2023-03-17T04:27:01.047Z,1.4
2023-03-17T04:28:00.367Z,1.4
2023-03-17T04:29:00.394Z,1.4
2023-03-17T04:30:00.527Z,1.4
2023-03-17T04:31:00.380Z,1.4
2023-03-17T04:32:00.762Z,1.4
2023-03-17T04:33:00.457Z,1.4
2023-03-17T04:34:00.552Z,1.4
2023-03-17T04:35:00.484Z,1.4
2023-03-17T04:36:00.406Z,1.6
2023-03-17T04:37:00.385Z,1.6
2023-03-17T04:38:00.436Z,1.6
2023-03-17T04:39:00.348Z,1.6
2023-03-17T04:40:00.543Z,1.6
2023-03-17T04:41:00.376Z,1.6
2023-03-17T04:42:00.390Z,1.6
2023-03-17T04:43:02.438Z,1.6
2023-03-17T04:44:00.390Z,1.6
2023-03-17T04:45:00.380Z,1.6
2023-03-17T04:46:00.448Z,1.6
2023-03-17T04:47:00.373Z,1.6
2023-03-17T04:48:00.347Z,1.6
2023-03-17T04:49:00.456Z,1.6
2023-03-17T04:50:00.659Z,1.6
2023-03-17T04:51:00.418Z,1.6
2023-03-17T04:52:00.347Z,1.6
2023-03-17T04:53:00.450Z,1.6
2023-03-17T04:54:00.379Z,1.6
2023-03-17T04:55:00.356Z,1.6
2023-03-17T04:56:00.361Z,1.4
2023-03-17T04:57:00.387Z,1.4
2023-03-17T04:58:00.398Z,1.4
2023-03-17T04:59:00.522Z,1.4
2023-03-17T05:00:00.418Z,1.4
2023-03-17T05:01:00.408Z,1.4
2023-03-17T05:02:00.403Z,1.4
2023-03-17T05:03:00.352Z,1.4
2023-03-17T05:04:00.394Z,1.4
2023-03-17T05:05:00.375Z,1.4
2023-03-17T05:06:02.884Z,1.4
2023-03-17T05:07:00.353Z,1.4
2023-03-17T05:08:00.389Z,1.4
2023-03-17T05:09:00.379Z,1.4
2023-03-17T05:10:00.377Z,1.4
2023-03-17T05:11:00.360Z,1.4
2023-03-17T05:12:00.352Z,1.4
2023-03-17T05:13:00.371Z,1.4
2023-03-17T05:14:00.379Z,1.4
2023-03-17T05:15:00.386Z,1.5
2023-03-17T05:16:00.362Z,1.5
2023-03-17T05:17:00.354Z,1.5
2023-03-17T05:18:00.378Z,1.5
2023-03-17T05:19:00.392Z,1.5
2023-03-17T05:20:00.356Z,1.5
2023-03-17T05:21:00.390Z,1.5
2023-03-17T05:22:00.351Z,1.5
2023-03-17T05:23:00.383Z,1.5
2023-03-17T05:24:00.380Z,1.5
2023-03-17T05:25:00.351Z,1.5
2023-03-17T05:26:00.822Z,1.5
2023-03-17T05:27:00.349Z,1.5
2023-03-17T05:28:00.381Z,1.5
2023-03-17T05:29:00.438Z,1.5
2023-03-17T05:30:00.376Z,1.5
2023-03-17T05:31:00.426Z,1.5
2023-03-17T05:32:00.380Z,1.5
2023-03-17T05:33:00.430Z,1.5
2023-03-17T05:34:00.373Z,1.5
2023-03-17T05:35:00.396Z,1.5
2023-03-17T05:36:00.422Z,1.5
2023-03-17T05:37:00.376Z,1.5
2023-03-17T05:38:00.357Z,1.5
2023-03-17T05:39:00.378Z,1.5
2023-03-17T05:40:00.402Z,1.5
2023-03-17T05:41:00.369Z,1.5
2023-03-17T05:42:00.356Z,1.5
2023-03-17T05:43:00.593Z,1.5
2023-03-17T05:44:00.399Z,1.5
2023-03-17T05:45:00.396Z,1.5
2023-03-17T05:46:00.400Z,1.5
2023-03-17T05:47:00.395Z,1.5
2023-03-17T05:48:00.371Z,1.5
2023-03-17T05:49:00.401Z,1.5
2023-03-17T05:50:00.692Z,1.5
2023-03-17T05:51:00.384Z,1.5
2023-03-17T05:52:00.362Z,1.5
2023-03-17T05:53:00.347Z,1.5
2023-03-17T05:54:00.371Z,1.5
2023-03-17T05:55:00.364Z,1.5
2023-03-17T05:56:00.484Z,1.5
2023-03-17T05:57:00.363Z,1.5
2023-03-17T05:58:00.385Z,1.5
2023-03-17T05:59:00.439Z,1.5
2023-03-17T06:00:00.387Z,1.5
2023-03-17T06:01:00.375Z,1.5
2023-03-17T06:02:00.457Z,1.5
2023-03-17T06:03:00.358Z,1.5
2023-03-17T06:04:00.382Z,1.5
2023-03-17T06:05:00.415Z,1.5
2023-03-17T06:06:00.351Z,1.5
2023-03-17T06:07:00.382Z,1.5
2023-03-17T06:08:00.669Z,1.5
2023-03-17T06:09:00.457Z,1.5
2023-03-17T06:10:00.443Z,1.5
2023-03-17T06:11:00.377Z,1.5
2023-03-17T06:12:00.382Z,1.5
2023-03-17T06:13:02.163Z,1.5
2023-03-17T06:14:00.377Z,1.5
2023-03-17T06:15:00.377Z,1.4
2023-03-17T06:16:00.391Z,1.4
2023-03-17T06:17:00.633Z,1.4
2023-03-17T06:18:00.501Z,1.4
2023-03-17T06:19:00.406Z,1.4
2023-03-17T06:20:00.389Z,1.4
2023-03-17T06:21:00.351Z,1.4
2023-03-17T06:22:00.389Z,1.4
2023-03-17T06:23:04.791Z,1.4
2023-03-17T06:24:00.357Z,1.4
2023-03-17T06:25:00.354Z,1.4
2023-03-17T06:26:00.386Z,1.4
2023-03-17T06:27:00.574Z,1.4
2023-03-17T06:28:00.652Z,1.4
2023-03-17T06:29:00.354Z,1.4
2023-03-17T06:30:00.422Z,1.4
2023-03-17T06:31:00.500Z,1.4
2023-03-17T06:32:17.031Z,1.4
2023-03-17T06:33:01.263Z,1.4
2023-03-17T06:34:00.397Z,1.4
2023-03-17T06:35:00.909Z,1.5
2023-03-17T06:36:00.438Z,1.5
2023-03-17T06:37:00.377Z,1.5
2023-03-17T06:38:00.445Z,1.5
2023-03-17T06:39:00.374Z,1.5
2023-03-17T06:40:00.478Z,1.5
2023-03-17T06:41:00.409Z,1.5
2023-03-17T06:42:00.388Z,1.5
2023-03-17T06:43:00.650Z,1.5
2023-03-17T06:44:00.346Z,1.5
2023-03-17T06:45:00.378Z,1.5
2023-03-17T06:46:00.503Z,1.5
2023-03-17T06:47:00.389Z,1.5
2023-03-17T06:48:00.372Z,1.5
2023-03-17T06:49:00.479Z,1.5
2023-03-17T06:50:00.368Z,1.5
2023-03-17T06:51:00.702Z,1.5
2023-03-17T06:52:00.368Z,1.5
2023-03-17T06:53:00.387Z,1.5
2023-03-17T06:54:00.375Z,1.5
2023-03-17T06:55:00.366Z,1.5
2023-03-17T06:56:00.495Z,1.5
2023-03-17T06:57:00.362Z,1.5
2023-03-17T06:58:00.446Z,1.5
2023-03-17T06:59:00.352Z,1.5
2023-03-17T07:00:00.373Z,1.5
2023-03-17T07:01:00.396Z,1.5
2023-03-17T07:02:00.398Z,1.5
2023-03-17T07:03:00.403Z,1.5
2023-03-17T07:04:00.361Z,1.5
2023-03-17T07:05:00.419Z,1.5
2023-03-17T07:06:00.497Z,1.5
2023-03-17T07:07:01.025Z,1.5
2023-03-17T07:08:00.360Z,1.5
2023-03-17T07:09:02.193Z,1.5
2023-03-17T07:10:00.602Z,1.5
2023-03-17T07:11:00.529Z,1.5
2023-03-17T07:12:00.635Z,1.5
2023-03-17T07:13:00.377Z,1.5
2023-03-17T07:14:00.405Z,1.5
2023-03-17T07:15:00.389Z,1.5
2023-03-17T07:16:00.970Z,1.5
2023-03-17T07:17:00.792Z,1.5
2023-03-17T07:18:00.720Z,1.5
2023-03-17T07:19:00.380Z,1.5
2023-03-17T07:20:00.399Z,1.5
2023-03-17T07:21:01.084Z,1.5
2023-03-17T07:22:00.361Z,1.5
2023-03-17T07:23:00.405Z,1.5
2023-03-17T07:24:00.354Z,1.5
2023-03-17T07:25:00.371Z,1.5
2023-03-17T07:26:00.404Z,1.5
2023-03-17T07:27:00.380Z,1.5
2023-03-17T07:28:00.379Z,1.5
2023-03-17T07:29:00.416Z,1.5
2023-03-17T07:30:00.463Z,1.5
2023-03-17T07:31:00.480Z,1.5
2023-03-17T07:32:00.556Z,1.5
2023-03-17T07:33:00.391Z,1.5
2023-03-17T07:34:00.403Z,1.5
2023-03-17T07:35:00.440Z,1.4
2023-03-17T07:36:00.459Z,1.4
2023-03-17T07:37:01.036Z,1.4
2023-03-17T07:38:00.407Z,1.4
2023-03-17T07:39:00.377Z,1.4
2023-03-17T07:40:00.361Z,1.4
2023-03-17T07:41:00.437Z,1.4
2023-03-17T07:42:00.651Z,1.4
2023-03-17T07:43:00.352Z,1.4
2023-03-17T07:44:00.364Z,1.4
2023-03-17T07:45:00.492Z,1.4
2023-03-17T07:46:00.401Z,1.4
2023-03-17T07:47:00.384Z,1.4
2023-03-17T07:48:01.565Z,1.4
2023-03-17T07:49:00.404Z,1.4
2023-03-17T07:50:00.378Z,1.4
2023-03-17T07:51:00.411Z,1.4
2023-03-17T07:52:00.349Z,1.4
2023-03-17T07:53:00.799Z,1.4
2023-03-17T07:54:00.388Z,1.4
2023-03-17T07:55:00.403Z,1.2
2023-03-17T07:56:00.378Z,1.2
2023-03-17T07:57:00.364Z,1.2
2023-03-17T07:58:00.408Z,1.2
2023-03-17T07:59:00.391Z,1.2
2023-03-17T08:00:00.383Z,1.2
2023-03-17T08:01:00.426Z,1.2
2023-03-17T08:02:00.424Z,1.2
2023-03-17T08:03:09.867Z,1.2
2023-03-17T08:04:00.440Z,1.2
2023-03-17T08:05:00.435Z,1.2
2023-03-17T08:06:00.381Z,1.2
2023-03-17T08:07:00.403Z,1.2
2023-03-17T08:08:00.387Z,1.2
2023-03-17T08:09:00.414Z,1.2
2023-03-17T08:10:00.424Z,1.2
2023-03-17T08:11:01.639Z,1.2
2023-03-17T08:12:00.352Z,1.2
2023-03-17T08:13:00.423Z,1.2
2023-03-17T08:14:00.514Z,1.2
2023-03-17T08:15:00.387Z,1.3
2023-03-17T08:16:00.391Z,1.3
2023-03-17T08:17:00.446Z,1.3
2023-03-17T08:18:00.380Z,1.3
2023-03-17T08:19:00.415Z,1.3
2023-03-17T08:20:00.381Z,1.3
2023-03-17T08:21:00.377Z,1.3
2023-03-17T08:22:00.355Z,1.3
2023-03-17T08:23:00.379Z,1.3
2023-03-17T08:24:00.379Z,1.3
2023-03-17T08:25:00.397Z,1.3
2023-03-17T08:26:00.984Z,1.3
2023-03-17T08:27:00.972Z,1.3
2023-03-17T08:28:00.353Z,1.3
2023-03-17T08:29:00.427Z,1.3
2023-03-17T08:30:00.423Z,1.3
2023-03-17T08:31:11.834Z,1.3
2023-03-17T08:32:00.540Z,1.3
2023-03-17T08:33:00.474Z,1.3
2023-03-17T08:34:00.407Z,1.3
2023-03-17T08:35:00.363Z,1.4
2023-03-17T08:36:03.004Z,1.4
2023-03-17T08:37:00.769Z,1.4
2023-03-17T08:38:00.557Z,1.4
2023-03-17T08:39:00.456Z,1.4
2023-03-17T08:40:00.355Z,1.4
2023-03-17T08:41:01.659Z,1.4
2023-03-17T08:42:00.521Z,1.4
2023-03-17T08:43:00.403Z,1.4
2023-03-17T08:44:00.376Z,1.4
2023-03-17T08:45:00.360Z,1.4
2023-03-17T08:46:02.271Z,1.4
2023-03-17T08:47:00.366Z,1.4
2023-03-17T08:48:00.382Z,1.4
2023-03-17T08:49:00.603Z,1.4
2023-03-17T08:50:00.461Z,1.4
2023-03-17T08:51:00.405Z,1.4
2023-03-17T08:52:00.427Z,1.4
2023-03-17T08:53:00.365Z,1.4
2023-03-17T08:54:00.752Z,1.4
2023-03-17T08:55:00.547Z,1.0
2023-03-17T08:56:00.996Z,1.0
2023-03-17T08:57:00.412Z,1.0
2023-03-17T08:58:00.406Z,1.0
2023-03-17T08:59:00.392Z,1.0
2023-03-17T09:00:00.604Z,1.0
2023-03-17T09:01:01.602Z,1.0
2023-03-17T09:02:00.393Z,1.0
2023-03-17T09:03:00.448Z,1.0
2023-03-17T09:04:00.663Z,1.0
2023-03-17T09:05:00.422Z,1.0
2023-03-17T09:06:00.428Z,1.0
2023-03-17T09:07:03.665Z,1.0
2023-03-17T09:08:00.417Z,1.0
2023-03-17T09:09:00.464Z,1.0
2023-03-17T09:10:00.359Z,1.0
2023-03-17T09:11:00.612Z,1.0
2023-03-17T09:12:00.606Z,1.0
2023-03-17T09:13:00.413Z,1.0
2023-03-17T09:14:00.380Z,1.0
2023-03-17T09:15:00.389Z,1.4
2023-03-17T09:16:00.388Z,1.4
2023-03-17T09:17:00.402Z,1.4
2023-03-17T09:18:00.381Z,1.4
2023-03-17T09:19:00.412Z,1.4
2023-03-17T09:20:00.380Z,1.4
2023-03-17T09:21:00.400Z,1.4
2023-03-17T09:22:01.501Z,1.4
2023-03-17T09:23:04.021Z,1.4
2023-03-17T09:24:02.424Z,1.4
2023-03-17T09:25:00.398Z,1.4
2023-03-17T09:26:00.394Z,1.4
2023-03-17T09:27:00.360Z,1.4
2023-03-17T09:28:00.853Z,1.4
2023-03-17T09:29:01.992Z,1.4
2023-03-17T09:30:00.395Z,1.4
2023-03-17T09:31:01.147Z,1.4
2023-03-17T09:32:00.601Z,1.4
2023-03-17T09:33:00.416Z,1.4
2023-03-17T09:34:00.441Z,0.8
2023-03-17T09:35:00.368Z,0.8
2023-03-17T09:36:00.423Z,0.8
2023-03-17T09:37:00.386Z,0.8
2023-03-17T09:38:00.385Z,0.8
2023-03-17T09:39:00.459Z,0.8
2023-03-17T09:40:00.358Z,0.8
2023-03-17T09:41:10.315Z,0.8
2023-03-17T09:42:04.047Z,0.8
2023-03-17T09:43:00.338Z,0.8
2023-03-17T09:44:10.288Z,0.8
2023-03-17T09:45:07.852Z,0.8
2023-03-17T09:46:06.577Z,0.8
2023-03-17T09:47:07.738Z,0.8
2023-03-17T09:48:10.284Z,0.8
2023-03-17T09:49:01.634Z,0.8
2023-03-17T09:50:02.072Z,0.8
2023-03-17T09:51:02.663Z,0.8
2023-03-17T09:52:00.579Z,0.8
2023-03-17T09:53:03.960Z,0.8
2023-03-17T09:54:02.628Z,1.1
2023-03-17T09:55:01.733Z,1.1
2023-03-17T09:56:04.454Z,1.1
2023-03-17T09:57:09.235Z,1.1
2023-03-17T09:58:00.388Z,1.1
2023-03-17T09:59:10.303Z,1.1
2023-03-17T10:00:02.688Z,1.1
2023-03-17T10:01:01.228Z,1.1
2023-03-17T10:02:00.681Z,1.1
2023-03-17T10:03:00.387Z,1.1
2023-03-17T10:04:00.777Z,1.1
2023-03-17T10:05:09.095Z,1.1
2023-03-17T10:06:12.770Z,1.1
2023-03-17T10:07:03.382Z,1.1
2023-03-17T10:08:01.371Z,1.1
2023-03-17T10:09:04.841Z,1.1
2023-03-17T10:10:02.367Z,1.1
2023-03-17T10:11:07.653Z,1.1
2023-03-17T10:12:07.765Z,1.1
2023-03-17T10:13:00.349Z,1.1
2023-03-17T10:14:03.727Z,0.9
2023-03-17T10:15:01.848Z,0.9
2023-03-17T10:16:05.612Z,0.9
2023-03-17T10:17:01.375Z,0.9
2023-03-17T10:18:01.540Z,0.9
2023-03-17T10:19:03.525Z,0.9
2023-03-17T10:20:04.583Z,0.9
2023-03-17T10:21:02.666Z,0.9
2023-03-17T10:22:04.139Z,0.9
2023-03-17T10:23:02.587Z,0.9
2023-03-17T10:24:02.291Z,0.9
2023-03-17T10:25:04.161Z,0.9
2023-03-17T10:26:04.992Z,0.9
2023-03-17T10:27:02.292Z,0.9
2023-03-17T10:28:01.495Z,0.9
2023-03-17T10:29:00.996Z,0.9
2023-03-17T10:30:00.447Z,0.9
2023-03-17T10:31:05.476Z,0.9
2023-03-17T10:32:00.379Z,0.9
2023-03-17T10:33:01.384Z,0.9
2023-03-17T10:34:10.314Z,0.7
2023-03-17T10:35:00.394Z,0.7
2023-03-17T10:36:08.823Z,0.7
2023-03-17T10:37:03.875Z,0.7
2023-03-17T10:38:13.806Z,0.7
2023-03-17T10:39:02.093Z,0.7
2023-03-17T10:40:02.667Z,0.7
2023-03-17T10:41:05.051Z,0.7
2023-03-17T10:42:09.623Z,0.7
2023-03-17T10:43:02.186Z,0.7
2023-03-17T10:44:00.408Z,0.7
2023-03-17T10:45:03.882Z,0.7
2023-03-17T10:46:02.261Z,0.7
2023-03-17T10:47:00.453Z,0.7
2023-03-17T10:48:01.223Z,0.7
2023-03-17T10:49:05.265Z,0.7
2023-03-17T10:50:10.296Z,0.7
2023-03-17T10:51:04.112Z,0.7
2023-03-17T10:52:04.417Z,0.7
2023-03-17T10:53:00.365Z,0.7
2023-03-17T10:54:01.609Z,0.6
2023-03-17T10:55:01.314Z,0.6
2023-03-17T10:56:09.339Z,0.6
2023-03-17T10:57:02.367Z,0.6
2023-03-17T10:58:01.393Z,0.6
2023-03-17T10:59:10.399Z,0.6
2023-03-17T11:00:00.939Z,0.6
2023-03-17T11:01:04.157Z,0.6
2023-03-17T11:02:04.406Z,0.6
2023-03-17T11:03:04.671Z,0.6
2023-03-17T11:04:00.467Z,0.6
2023-03-17T11:05:06.355Z,0.6
2023-03-17T11:06:01.950Z,0.6
2023-03-17T11:07:05.234Z,0.6
2023-03-17T11:08:07.830Z,0.6
2023-03-17T11:09:04.741Z,0.6
2023-03-17T11:10:01.255Z,0.6
2023-03-17T11:11:03.570Z,0.6
2023-03-17T11:12:02.164Z,0.6
2023-03-17T11:13:00.901Z,0.6
2023-03-17T11:14:01.166Z,0.7
2023-03-17T11:15:01.726Z,0.7
2023-03-17T11:16:10.356Z,0.7
2023-03-17T11:17:01.967Z,0.7
2023-03-17T11:18:01.577Z,0.7
2023-03-17T11:19:00.550Z,0.7
2023-03-17T11:20:10.324Z,0.7
2023-03-17T11:21:04.101Z,0.7
2023-03-17T11:22:00.363Z,0.7
2023-03-17T11:23:10.295Z,0.7
2023-03-17T11:24:10.318Z,0.7
2023-03-17T11:25:08.205Z,0.7
2023-03-17T11:26:10.316Z,0.7
2023-03-17T11:27:08.324Z,0.7
2023-03-17T11:28:10.337Z,0.7
2023-03-17T11:29:07.842Z,0.7
2023-03-17T11:30:10.323Z,0.7
2023-03-17T11:31:01.405Z,0.7
2023-03-17T11:32:10.300Z,0.7
2023-03-17T11:33:01.422Z,0.7
2023-03-17T11:34:05.183Z,0.8
2023-03-17T11:35:10.294Z,0.8
2023-03-17T11:36:05.200Z,0.8
2023-03-17T11:37:06.921Z,0.8
2023-03-17T11:38:10.322Z,0.8
2023-03-17T11:39:04.182Z,0.8
2023-03-17T11:40:10.323Z,0.8
2023-03-17T11:41:00.341Z,0.8
2023-03-17T11:42:10.321Z,0.8
2023-03-17T11:43:10.297Z,0.8
2023-03-17T11:44:10.318Z,0.8
2023-03-17T11:45:07.924Z,0.8
2023-03-17T11:46:06.489Z,0.8
2023-03-17T11:47:01.356Z,0.8
2023-03-17T11:48:09.953Z,0.8
2023-03-17T11:49:10.328Z,0.8
2023-03-17T11:50:10.300Z,0.8
2023-03-17T11:51:06.041Z,0.8
2023-03-17T11:52:10.291Z,0.8
2023-03-17T11:53:10.297Z,0.8
2023-03-17T11:54:09.682Z,0.5
2023-03-17T11:55:04.763Z,0.5
2023-03-17T11:56:02.253Z,0.5
2023-03-17T11:57:03.612Z,0.5
2023-03-17T11:58:01.994Z,0.5
2023-03-17T11:59:04.201Z,0.5
2023-03-17T12:00:10.288Z,0.5
2023-03-17T12:01:03.233Z,0.5
2023-03-17T12:02:01.401Z,0.5
2023-03-17T12:03:03.653Z,0.5
2023-03-17T12:04:10.335Z,0.5
2023-03-17T12:05:02.655Z,0.5
2023-03-17T12:06:02.262Z,0.5
2023-03-17T12:07:04.726Z,0.5
2023-03-17T12:08:04.787Z,0.5
2023-03-17T12:09:10.317Z,0.5
2023-03-17T12:10:03.699Z,0.5
2023-03-17T12:11:04.483Z,0.5
2023-03-17T12:12:01.786Z,0.5
2023-03-17T12:13:04.697Z,0.5
2023-03-17T12:14:04.574Z,0.3
2023-03-17T12:15:00.686Z,0.3
2023-03-17T12:16:04.270Z,0.3
2023-03-17T12:17:01.393Z,0.3
2023-03-17T12:18:05.443Z,0.3
2023-03-17T12:19:10.289Z,0.3
2023-03-17T12:20:10.316Z,0.3
2023-03-17T12:21:09.986Z,0.3
2023-03-17T12:22:05.360Z,0.3
2023-03-17T12:23:04.396Z,0.3
2023-03-17T12:24:03.669Z,0.3
2023-03-17T12:25:09.516Z,0.3
2023-03-17T12:26:03.649Z,0.3
2023-03-17T12:27:02.823Z,0.3
2023-03-17T12:28:09.385Z,0.3
2023-03-17T12:29:03.614Z,0.3
2023-03-17T12:30:10.314Z,0.3
2023-03-17T12:31:03.536Z,0.3
2023-03-17T12:32:03.799Z,0.3
2023-03-17T12:33:10.336Z,0.3
2023-03-17T12:34:10.296Z,0.4
2023-03-17T12:35:03.466Z,0.4
2023-03-17T12:36:01.051Z,0.4
2023-03-17T12:37:01.165Z,0.4
2023-03-17T12:38:04.712Z,0.4
2023-03-17T12:39:06.025Z,0.4
2023-03-17T12:40:02.658Z,0.4
2023-03-17T12:41:00.361Z,0.4
2023-03-17T12:42:10.294Z,0.4
2023-03-17T12:43:10.290Z,0.4
2023-03-17T12:44:03.828Z,0.4
2023-03-17T12:45:10.321Z,0.4
2023-03-17T12:46:03.610Z,0.4
2023-03-17T12:47:10.285Z,0.4
2023-03-17T12:48:10.315Z,0.4
2023-03-17T12:49:00.357Z,0.4
2023-03-17T12:50:07.839Z,0.4
2023-03-17T12:51:00.336Z,0.4
2023-03-17T12:52:03.626Z,0.4
2023-03-17T12:53:03.628Z,0.4
2023-03-17T12:54:00.480Z,0.3
2023-03-17T12:55:02.356Z,0.3
2023-03-17T12:56:08.018Z,0.3
2023-03-17T12:57:09.351Z,0.3
2023-03-17T12:58:01.514Z,0.3
2023-03-17T12:59:01.388Z,0.3
2023-03-17T13:00:04.773Z,0.3
2023-03-17T13:01:05.694Z,0.3
2023-03-17T13:02:10.290Z,0.3
2023-03-17T13:03:10.342Z,0.3
2023-03-17T13:04:04.985Z,0.3
2023-03-17T13:05:04.336Z,0.3
2023-03-17T13:06:02.076Z,0.3
2023-03-17T13:07:09.924Z,0.3
2023-03-17T13:08:01.215Z,0.3
2023-03-17T13:09:10.326Z,0.3
2023-03-17T13:10:00.338Z,0.3
2023-03-17T13:11:10.314Z,0.3
2023-03-17T13:12:01.035Z,0.3
2023-03-17T13:13:04.284Z,0.3
2023-03-17T13:14:10.300Z,0.4
2023-03-17T13:15:00.421Z,0.4
2023-03-17T13:16:02.568Z,0.4
2023-03-17T13:17:04.615Z,0.4
2023-03-17T13:18:10.317Z,0.4
2023-03-17T13:19:10.312Z,0.4
2023-03-17T13:20:07.738Z,0.4
2023-03-17T13:21:00.335Z,0.4
2023-03-17T13:22:03.614Z,0.4
2023-03-17T13:23:10.311Z,0.4
2023-03-17T13:24:10.312Z,0.4
2023-03-17T13:25:10.284Z,0.4
2023-03-17T13:26:00.416Z,0.4
2023-03-17T13:27:01.611Z,0.4
2023-03-17T13:28:10.558Z,0.4
2023-03-17T13:29:01.415Z,0.4
2023-03-17T13:30:10.316Z,0.4
2023-03-17T13:31:10.393Z,0.4
2023-03-17T13:32:10.293Z,0.4
2023-03-17T13:33:10.458Z,0.4
2023-03-17T13:34:10.093Z,0.2
2023-03-17T13:35:00.336Z,0.2
2023-03-17T13:36:10.341Z,0.2
2023-03-17T13:37:03.226Z,0.2
2023-03-17T13:38:07.789Z,0.2
2023-03-17T13:39:19.229Z,0.2
2023-03-17T13:40:05.616Z,0.2
2023-03-17T13:41:10.309Z,0.2
2023-03-17T13:42:17.613Z,0.2
2023-03-17T13:43:07.676Z,0.2
2023-03-17T13:44:10.283Z,0.2
2023-03-17T13:45:00.377Z,0.2
2023-03-17T13:46:10.446Z,0.2